Time;durP1;ratioP1;P1;durP2;ratioP2;P2;SDS_P1;SDS_P2;PMS_P1;PMS_P2;Temp;Humidity;BMP_temperature;BMP_pressure;BME280_temperature;BME280_humidity;BME280_pressure;Samples;Min_cycle;Max_cycle;Signal;HPM_P1;HPM_P2
2022/08/02 00:00:43;;;;;;;4.72;0.90;;;;;;;;;;5053677;28;20036;-74
2022/08/02 00:03:09;;;;;;;2.47;0.75;;;;;;;;;;5051462;28;20053;-73
2022/08/02 00:05:35;;;;;;;4.03;0.82;;;;;;;;;;5055228;28;20110;-74
2022/08/02 00:08:01;;;;;;;1.90;0.90;;;;;;;;;;5049918;28;20020;-74
2022/08/02 00:10:27;;;;;;;4.40;1.15;;;;;;;;;;5047312;28;20025;-73
2022/08/02 00:12:53;;;;;;;4.22;1.33;;;;;;;;;;5056002;28;20607;-73
2022/08/02 00:15:20;;;;;;;2.80;1.00;;;;;;;;;;5047506;28;20037;-74
2022/08/02 00:17:46;;;;;;;3.72;1.13;;;;;;;;;;5056353;28;20119;-73
2022/08/02 00:20:12;;;;;;;2.35;0.80;;;;;;;;;;5057795;28;20032;-73
2022/08/02 00:22:38;;;;;;;2.67;1.20;;;;;;;;;;5049168;28;20128;-73
2022/08/02 00:25:04;;;;;;;2.88;1.10;;;;;;;;;;5051326;28;20121;-73
2022/08/02 00:27:30;;;;;;;5.47;1.25;;;;;;;;;;5052947;28;20060;-73
2022/08/02 00:29:56;;;;;;;2.42;0.93;;;;;;;;;;5054483;28;20119;-73
2022/08/02 00:32:22;;;;;;;2.00;0.95;;;;;;;;;;5054546;28;20470;-73
2022/08/02 00:34:49;;;;;;;3.40;0.98;;;;;;;;;;5052045;28;20103;-73
2022/08/02 00:37:15;;;;;;;4.22;1.17;;;;;;;;;;5059038;28;20053;-73
2022/08/02 00:39:41;;;;;;;2.75;0.90;;;;;;;;;;5049912;28;20033;-73
2022/08/02 00:42:08;;;;;;;1.92;0.95;;;;;;;;;;5053834;28;20078;-73
2022/08/02 00:44:34;;;;;;;2.63;1.15;;;;;;;;;;5052816;28;20055;-73
2022/08/02 00:47:00;;;;;;;2.40;0.90;;;;;;;;;;5054287;28;20025;-74
2022/08/02 00:49:26;;;;;;;3.30;1.20;;;;;;;;;;5054657;28;20469;-73
2022/08/02 00:51:52;;;;;;;3.20;0.98;;;;;;;;;;5052608;28;20662;-73
2022/08/02 00:54:18;;;;;;;4.65;1.25;;;;;;;;;;5055011;28;20040;-73
2022/08/02 00:56:44;;;;;;;3.25;0.90;;;;;;;;;;5049203;28;20049;-73
2022/08/02 00:59:10;;;;;;;3.63;1.10;;;;;;;;;;5052308;28;20085;-73
2022/08/02 01:01:40;;;;;;;2.65;1.00;;;;;;;;;;5050689;28;20063;-73
2022/08/02 01:04:10;;;;;;;5.57;1.50;;;;;;;;;;5057587;28;20072;-73
2022/08/02 01:06:37;;;;;;;3.35;1.50;;;;;;;;;;5051184;28;20074;-73
2022/08/02 01:09:03;;;;;;;3.38;1.50;;;;;;;;;;5049947;28;20083;-73
2022/08/02 01:11:29;;;;;;;4.65;1.10;;;;;;;;;;5050860;28;20048;-73
2022/08/02 01:13:58;;;;;;;3.90;1.05;;;;;;;;;;5057259;28;20029;-73
2022/08/02 01:16:25;;;;;;;3.80;1.05;;;;;;;;;;5053623;28;20040;-73
2022/08/02 01:18:54;;;;;;;3.47;1.08;;;;;;;;;;5054116;28;20106;-73
2022/08/02 01:21:19;;;;;;;4.10;1.00;;;;;;;;;;5053637;28;20489;-73
2022/08/02 01:24:04;;;;;;;3.50;0.90;;;;;;;;;;5050897;28;20040;-73
2022/08/02 01:26:46;;;;;;;3.53;1.33;;;;;;;;;;5055677;28;20066;-73
2022/08/02 01:29:12;;;;;;;;;;;;;;;;;;5049986;28;20042;-73
2022/08/02 01:31:38;;;;;;;5.00;1.40;;;;;;;;;;5049859;28;20679;-73
2022/08/02 01:34:23;;;;;;;3.20;0.90;;;;;;;;;;5050703;28;20036;-73
2022/08/02 01:36:53;;;;;;;5.18;1.10;;;;;;;;;;5047589;28;20041;-73
2022/08/02 01:39:23;;;;;;;3.45;1.13;;;;;;;;;;5049824;28;20032;-73
2022/08/02 01:41:49;;;;;;;1.92;1.00;;;;;;;;;;5053703;28;20033;-73
2022/08/02 01:44:16;;;;;;;3.92;1.10;;;;;;;;;;5056239;28;20052;-73
2022/08/02 01:46:43;;;;;;;2.90;0.90;;;;;;;;;;5049817;28;20124;-73
2022/08/02 01:49:11;;;;;;;2.55;1.10;;;;;;;;;;5052019;28;20109;-73
2022/08/02 01:54:26;;;;;;;5.95;1.38;;;;;;;;;;5048831;28;20056;-73
2022/08/02 01:56:53;;;;;;;4.65;1.10;;;;;;;;;;5067073;28;20071;-73
2022/08/02 01:59:20;;;;;;;3.63;1.15;;;;;;;;;;5048657;28;20052;-73
2022/08/02 02:01:47;;;;;;;2.45;1.20;;;;;;;;;;5054527;28;20029;-73
2022/08/02 02:04:14;;;;;;;2.42;0.90;;;;;;;;;;5046632;28;20044;-73
2022/08/02 02:06:42;;;;;;;2.53;1.10;;;;;;;;;;5052462;28;20033;-73
2022/08/02 02:09:08;;;;;;;2.95;1.27;;;;;;;;;;5046081;28;20033;-73
2022/08/02 02:11:35;;;;;;;3.90;1.23;;;;;;;;;;5055161;28;20501;-73
2022/08/02 02:14:02;;;;;;;4.55;1.05;;;;;;;;;;5048133;28;20466;-73
2022/08/02 02:16:30;;;;;;;4.03;1.30;;;;;;;;;;5053350;28;20064;-73
2022/08/02 02:18:56;;;;;;;2.97;1.30;;;;;;;;;;5044309;28;20028;-73
2022/08/02 02:21:22;;;;;;;3.45;1.35;;;;;;;;;;5050130;28;20036;-73
2022/08/02 02:23:49;;;;;;;3.80;1.45;;;;;;;;;;5048710;28;20127;-73
2022/08/02 02:26:16;;;;;;;5.50;1.30;;;;;;;;;;5053796;28;20037;-73
2022/08/02 02:28:44;;;;;;;3.30;0.95;;;;;;;;;;5050141;28;20071;-73
2022/08/02 02:31:12;;;;;;;2.88;0.95;;;;;;;;;;5056213;28;20042;-73
2022/08/02 02:33:40;;;;;;;4.07;1.10;;;;;;;;;;5047189;28;20457;-73
2022/08/02 02:36:08;;;;;;;2.70;0.90;;;;;;;;;;5050178;28;20121;-73
2022/08/02 02:38:35;;;;;;;2.13;1.08;;;;;;;;;;5050566;28;20217;-73
2022/08/02 02:41:02;;;;;;;4.03;1.20;;;;;;;;;;5053451;28;20028;-73
2022/08/02 02:43:30;;;;;;;7.15;1.40;;;;;;;;;;5055241;28;20045;-73
2022/08/02 02:45:56;;;;;;;3.15;1.33;;;;;;;;;;5051284;28;20028;-73
2022/08/02 02:48:22;;;;;;;4.22;1.42;;;;;;;;;;5056288;28;20028;-73
2022/08/02 02:50:49;;;;;;;3.90;1.40;;;;;;;;;;5048690;28;20021;-73
2022/08/02 02:53:16;;;;;;;4.00;1.35;;;;;;;;;;5053583;28;20068;-74
2022/08/02 02:55:43;;;;;;;4.97;1.40;;;;;;;;;;5049760;28;20035;-73
2022/08/02 02:58:09;;;;;;;4.85;1.35;;;;;;;;;;5063427;28;20067;-73
2022/08/02 03:03:20;;;;;;;4.47;1.35;;;;;;;;;;5046375;28;20051;-73
2022/08/02 03:05:46;;;;;;;2.95;1.23;;;;;;;;;;5050587;28;20030;-73
2022/08/02 03:08:12;;;;;;;3.30;1.05;;;;;;;;;;5049824;28;20467;-73
2022/08/02 03:10:38;;;;;;;3.35;1.23;;;;;;;;;;5050524;28;20104;-73
2022/08/02 03:13:05;;;;;;;3.70;1.30;;;;;;;;;;5054581;28;20120;-73
2022/08/02 03:15:31;;;;;;;2.80;1.17;;;;;;;;;;5047381;28;20175;-73
2022/08/02 03:17:57;;;;;;;5.03;1.40;;;;;;;;;;5052674;28;20031;-73
2022/08/02 03:20:24;;;;;;;4.45;1.13;;;;;;;;;;5048077;28;20517;-73
2022/08/02 03:22:50;;;;;;;3.40;1.30;;;;;;;;;;5046581;28;20048;-73
2022/08/02 03:25:16;;;;;;;4.63;1.42;;;;;;;;;;5055671;28;20036;-73
2022/08/02 03:27:42;;;;;;;3.95;1.40;;;;;;;;;;5042934;28;20032;-73
2022/08/02 03:30:10;;;;;;;3.67;1.33;;;;;;;;;;5057537;28;20063;-73
2022/08/02 03:32:37;;;;;;;2.85;1.15;;;;;;;;;;5044600;28;20111;-73
2022/08/02 03:35:04;;;;;;;4.72;1.50;;;;;;;;;;5050423;28;20028;-73
2022/08/02 03:37:31;;;;;;;6.20;1.92;;;;;;;;;;5050722;28;20033;-73
2022/08/02 03:39:57;;;;;;;4.45;1.77;;;;;;;;;;5052281;28;20033;-73
2022/08/02 03:42:25;;;;;;;6.13;1.48;;;;;;;;;;5048368;28;20048;-73
2022/08/02 03:44:51;;;;;;;4.15;1.65;;;;;;;;;;5048360;28;20037;-73
2022/08/02 03:47:18;;;;;;;3.80;1.30;;;;;;;;;;5050910;28;20029;-73
2022/08/02 03:49:44;;;;;;;3.28;1.40;;;;;;;;;;5056375;28;20033;-73
2022/08/02 03:52:10;;;;;;;5.25;1.45;;;;;;;;;;5055910;28;20067;-73
2022/08/02 03:54:37;;;;;;;7.35;2.30;;;;;;;;;;5054641;28;20041;-73
2022/08/02 03:57:06;;;;;;;4.55;1.38;;;;;;;;;;5050143;28;20036;-73
2022/08/02 03:59:39;;;;;;;6.40;1.40;;;;;;;;;;5060258;28;20130;-73
2022/08/02 04:02:05;;;;;;;5.35;1.35;;;;;;;;;;5054123;28;20733;-73
2022/08/02 04:04:31;;;;;;;4.28;1.50;;;;;;;;;;5053257;28;20041;-73
2022/08/02 04:06:57;;;;;;;4.22;1.40;;;;;;;;;;5052167;28;20035;-73
2022/08/02 04:09:23;;;;;;;4.38;1.40;;;;;;;;;;5048915;28;20033;-73
2022/08/02 04:11:49;;;;;;;4.18;1.30;;;;;;;;;;5060663;28;20471;-73
2022/08/02 04:14:15;;;;;;;5.63;1.75;;;;;;;;;;5046437;28;20044;-73
2022/08/02 04:16:47;;;;;;;4.00;1.30;;;;;;;;;;5053057;28;20033;-73
2022/08/02 04:19:25;;;;;;;4.00;1.65;;;;;;;;;;5043085;28;20114;-73
2022/08/02 04:21:52;;;;;;;3.35;1.50;;;;;;;;;;5044627;28;20051;-73
2022/08/02 04:24:26;;;;;;;5.50;1.27;;;;;;;;;;5047972;28;20037;-73
2022/08/02 04:26:56;;;;;;;4.82;1.30;;;;;;;;;;5048833;28;20601;-73
2022/08/02 04:29:23;;;;;;;4.50;1.67;;;;;;;;;;5049662;28;20033;-73
2022/08/02 04:31:49;;;;;;;8.23;1.58;;;;;;;;;;5048012;28;20474;-73
2022/08/02 04:34:15;;;;;;;11.43;1.27;;;;;;;;;;5054903;28;20541;-73
2022/08/02 04:36:41;;;;;;;5.00;1.67;;;;;;;;;;5055516;28;20591;-73
2022/08/02 04:39:07;;;;;;;8.48;2.20;;;;;;;;;;5052505;28;20040;-73
2022/08/02 04:41:37;;;;;;;7.75;2.17;;;;;;;;;;5055388;28;20901;-73
2022/08/02 04:44:03;;;;;;;6.03;2.50;;;;;;;;;;5048671;28;20110;-73
2022/08/02 04:46:30;;;;;;;7.63;2.40;;;;;;;;;;5049947;28;20025;-73
2022/08/02 04:48:56;;;;;;;5.00;2.03;;;;;;;;;;5049171;28;20033;-73
2022/08/02 04:51:22;;;;;;;5.25;2.22;;;;;;;;;;5051743;28;20792;-73
2022/08/02 04:53:48;;;;;;;5.97;2.33;;;;;;;;;;5049222;28;20037;-73
2022/08/02 04:56:14;;;;;;;10.27;2.47;;;;;;;;;;5050478;28;20037;-73
2022/08/02 04:58:40;;;;;;;6.40;2.15;;;;;;;;;;5048296;28;20055;-73
2022/08/02 05:01:06;;;;;;;5.97;1.67;;;;;;;;;;5053653;28;20383;-73
2022/08/02 05:03:32;;;;;;;5.47;2.40;;;;;;;;;;5050008;28;20045;-73
2022/08/02 05:05:59;;;;;;;7.60;2.33;;;;;;;;;;5055094;28;20043;-73
2022/08/02 05:08:25;;;;;;;10.88;2.42;;;;;;;;;;5046677;28;20589;-73
2022/08/02 05:10:51;;;;;;;11.25;3.10;;;;;;;;;;5054618;28;20771;-73
2022/08/02 05:13:17;;;;;;;15.18;2.90;;;;;;;;;;5050235;28;20045;-73
2022/08/02 05:15:43;;;;;;;10.75;3.00;;;;;;;;;;5049949;28;20041;-73
2022/08/02 05:18:11;;;;;;;9.77;2.53;;;;;;;;;;5053715;28;20043;-73
2022/08/02 05:20:37;;;;;;;8.73;2.30;;;;;;;;;;5047429;28;20032;-73
2022/08/02 05:23:03;;;;;;;8.73;1.98;;;;;;;;;;5046630;28;20094;-73
2022/08/02 05:25:29;;;;;;;5.57;1.65;;;;;;;;;;5052553;28;20029;-73
2022/08/02 05:27:55;;;;;;;6.35;2.10;;;;;;;;;;5046314;28;20021;-73
2022/08/02 05:30:21;;;;;;;8.15;1.92;;;;;;;;;;5047175;28;20493;-73
2022/08/02 05:32:47;;;;;;;9.50;2.05;;;;;;;;;;5050638;28;20022;-73
2022/08/02 05:35:16;;;;;;;5.15;2.15;;;;;;;;;;5050149;28;20036;-73
2022/08/02 05:37:42;;;;;;;8.98;2.50;;;;;;;;;;5047607;28;20021;-73
2022/08/02 05:40:09;;;;;;;3.65;1.67;;;;;;;;;;5046307;28;20580;-73
2022/08/02 05:42:35;;;;;;;5.93;2.22;;;;;;;;;;5053229;28;20369;-73
2022/08/02 05:45:01;;;;;;;6.82;2.38;;;;;;;;;;5044237;28;20146;-73
2022/08/02 05:47:27;;;;;;;3.50;1.58;;;;;;;;;;5054413;28;20029;-74
2022/08/02 05:49:53;;;;;;;4.80;2.05;;;;;;;;;;5052307;28;20041;-73
2022/08/02 05:52:19;;;;;;;5.55;1.83;;;;;;;;;;5054316;28;20131;-73
2022/08/02 05:54:54;;;;;;;8.02;2.42;;;;;;;;;;5049092;28;20056;-73
2022/08/02 05:57:23;;;;;;;4.35;1.33;;;;;;;;;;5050916;28;20119;-73
2022/08/02 05:59:59;;;;;;;4.93;1.35;;;;;;;;;;5051956;28;20052;-73
2022/08/02 06:02:31;;;;;;;6.07;1.40;;;;;;;;;;5053002;28;20032;-73
2022/08/02 06:05:09;;;;;;;4.13;1.30;;;;;;;;;;5047586;28;20037;-73
2022/08/02 06:07:36;;;;;;;4.53;1.27;;;;;;;;;;5050104;28;20107;-73
2022/08/02 06:10:06;;;;;;;6.70;1.08;;;;;;;;;;5045900;28;20099;-73
2022/08/02 06:12:33;;;;;;;7.10;1.27;;;;;;;;;;5044405;28;20401;-73
2022/08/02 06:14:59;;;;;;;11.05;1.80;;;;;;;;;;5050448;28;20036;-73
2022/08/02 06:17:25;;;;;;;8.75;1.33;;;;;;;;;;5042020;28;20033;-73
2022/08/02 06:19:54;;;;;;;6.68;2.20;;;;;;;;;;5049177;28;20483;-73
2022/08/02 06:22:20;;;;;;;12.93;2.55;;;;;;;;;;5044543;28;20017;-73
2022/08/02 06:24:49;;;;;;;10.00;2.20;;;;;;;;;;5043663;28;20037;-73
2022/08/02 06:27:15;;;;;;;6.78;2.10;;;;;;;;;;5043569;28;20029;-73
2022/08/02 06:29:47;;;;;;;6.05;1.90;;;;;;;;;;5042878;28;20554;-73
2022/08/02 06:32:16;;;;;;;9.45;2.00;;;;;;;;;;5043224;28;20025;-74
2022/08/02 06:34:42;;;;;;;7.47;2.30;;;;;;;;;;5047189;28;20167;-73
2022/08/02 06:37:14;;;;;;;7.43;2.17;;;;;;;;;;5048172;28;20028;-73
2022/08/02 06:39:45;;;;;;;7.80;3.15;;;;;;;;;;5046952;28;20075;-73
2022/08/02 06:42:17;;;;;;;7.63;3.15;;;;;;;;;;5045768;28;20031;-73
2022/08/02 06:44:43;;;;;;;8.27;2.78;;;;;;;;;;5049938;28;20044;-73
2022/08/02 06:47:09;;;;;;;5.75;1.42;;;;;;;;;;5048688;28;20028;-73
2022/08/02 06:49:35;;;;;;;3.65;1.25;;;;;;;;;;5047240;28;20719;-73
2022/08/02 06:52:02;;;;;;;4.07;1.30;;;;;;;;;;5043630;28;20053;-73
2022/08/02 06:54:28;;;;;;;2.83;1.30;;;;;;;;;;5045899;28;20041;-73
2022/08/02 06:56:54;;;;;;;6.50;1.55;;;;;;;;;;5045204;28;20037;-73
2022/08/02 06:59:20;;;;;;;8.57;1.42;;;;;;;;;;5048813;28;20057;-73
2022/08/02 07:01:46;;;;;;;2.78;1.40;;;;;;;;;;5046230;28;20036;-73
2022/08/02 07:04:12;;;;;;;2.65;1.30;;;;;;;;;;5047776;28;20678;-73
2022/08/02 07:06:38;;;;;;;4.43;1.40;;;;;;;;;;5043699;28;20017;-73
2022/08/02 07:09:04;;;;;;;6.65;1.50;;;;;;;;;;5042543;28;20041;-73
2022/08/02 07:11:30;;;;;;;3.22;1.65;;;;;;;;;;5047054;28;20040;-73
2022/08/02 07:13:56;;;;;;;3.50;1.50;;;;;;;;;;5041178;28;20532;-73
2022/08/02 07:16:22;;;;;;;4.53;1.20;;;;;;;;;;5043665;28;20037;-73
2022/08/02 07:18:48;;;;;;;4.75;1.50;;;;;;;;;;5045206;28;20048;-73
2022/08/02 07:21:14;;;;;;;4.80;1.60;;;;;;;;;;5045799;28;20045;-73
2022/08/02 07:23:40;;;;;;;3.72;1.65;;;;;;;;;;5047335;28;20520;-73
2022/08/02 07:26:06;;;;;;;3.63;1.55;;;;;;;;;;5042722;28;20123;-73
2022/08/02 07:28:32;;;;;;;6.00;2.05;;;;;;;;;;5042654;28;20066;-73
2022/08/02 07:30:58;;;;;;;3.72;1.67;;;;;;;;;;5048030;28;20024;-73
2022/08/02 07:33:26;;;;;;;5.72;1.95;;;;;;;;;;5044166;28;20037;-73
2022/08/02 07:35:52;;;;;;;5.93;1.90;;;;;;;;;;5043729;28;20365;-73
2022/08/02 07:38:21;;;;;;;4.50;1.60;;;;;;;;;;5041840;28;20041;-73
2022/08/02 07:40:47;;;;;;;5.50;1.13;;;;;;;;;;5045454;28;20151;-73
2022/08/02 07:43:14;;;;;;;5.78;1.58;;;;;;;;;;5050410;28;20083;-73
2022/08/02 07:45:40;;;;;;;7.03;1.73;;;;;;;;;;5043063;28;20029;-73
2022/08/02 07:48:07;;;;;;;5.85;1.35;;;;;;;;;;5045010;28;20342;-73
2022/08/02 07:50:33;;;;;;;5.72;1.50;;;;;;;;;;5044703;28;20036;-73
2022/08/02 07:52:59;;;;;;;7.57;1.65;;;;;;;;;;5049657;28;20048;-73
2022/08/02 07:55:25;;;;;;;3.00;1.38;;;;;;;;;;5040074;28;20055;-73
2022/08/02 07:57:52;;;;;;;7.03;1.60;;;;;;;;;;5043717;28;20795;-73
2022/08/02 08:00:18;;;;;;;4.35;1.63;;;;;;;;;;5043375;28;20056;-73
2022/08/02 08:02:46;;;;;;;5.78;1.67;;;;;;;;;;5041147;28;20033;-73
2022/08/02 08:05:12;;;;;;;5.65;1.95;;;;;;;;;;5042698;28;20028;-73
2022/08/02 08:07:38;;;;;;;3.35;1.48;;;;;;;;;;5043628;28;20573;-73
2022/08/02 08:10:04;;;;;;;5.70;1.80;;;;;;;;;;5044269;28;20075;-73
2022/08/02 08:12:31;;;;;;;4.43;1.58;;;;;;;;;;5046753;28;20131;-73
2022/08/02 08:14:57;;;;;;;6.72;1.60;;;;;;;;;;5044192;28;20468;-73
2022/08/02 08:17:23;;;;;;;3.92;1.30;;;;;;;;;;5040188;28;20102;-73
2022/08/02 08:19:49;;;;;;;4.43;1.55;;;;;;;;;;5045615;28;20106;-73
2022/08/02 08:22:15;;;;;;;7.07;1.60;;;;;;;;;;5043329;28;20041;-73
2022/08/02 08:24:41;;;;;;;4.50;1.58;;;;;;;;;;5043956;28;20040;-73
2022/08/02 08:27:09;;;;;;;5.05;1.50;;;;;;;;;;5047030;28;20025;-73
2022/08/02 08:29:35;;;;;;;4.53;1.58;;;;;;;;;;5048204;28;20061;-73
2022/08/02 08:32:01;;;;;;;4.35;1.60;;;;;;;;;;5049030;28;21900;-74
2022/08/02 08:34:30;;;;;;;8.25;1.88;;;;;;;;;;5048837;28;20087;-73
2022/08/02 08:36:56;;;;;;;9.35;2.03;;;;;;;;;;5049180;28;20029;-73
2022/08/02 08:39:22;;;;;;;9.27;1.67;;;;;;;;;;5051383;28;20067;-73
2022/08/02 08:41:48;;;;;;;4.10;1.20;;;;;;;;;;5049274;28;20040;-73
2022/08/02 08:44:14;;;;;;;8.23;1.60;;;;;;;;;;5045668;28;20071;-73
2022/08/02 08:46:42;;;;;;;6.85;2.30;;;;;;;;;;5051882;28;20026;-73
2022/08/02 08:49:09;;;;;;;10.13;1.90;;;;;;;;;;5047555;28;20024;-73
2022/08/02 08:51:37;;;;;;;4.00;1.75;;;;;;;;;;5048174;28;20525;-73
2022/08/02 08:54:04;;;;;;;6.72;1.67;;;;;;;;;;5048081;28;20158;-73
2022/08/02 08:56:32;;;;;;;5.43;1.40;;;;;;;;;;5046470;28;20490;-73
2022/08/02 08:58:58;;;;;;;8.57;2.45;;;;;;;;;;5046520;28;20080;-73
2022/08/02 09:01:24;;;;;;;9.63;1.60;;;;;;;;;;5049713;28;20032;-73
2022/08/02 09:03:50;;;;;;;4.75;1.73;;;;;;;;;;5046229;28;20041;-73
2022/08/02 09:06:17;;;;;;;4.85;1.70;;;;;;;;;;5049126;28;20025;-73
2022/08/02 09:08:43;;;;;;;5.55;1.98;;;;;;;;;;5049097;28;20034;-73
2022/08/02 09:11:19;;;;;;;4.45;1.40;;;;;;;;;;5048924;28;20036;-73
2022/08/02 09:14:03;;;;;;;7.55;1.77;;;;;;;;;;5049100;28;20063;-73
2022/08/02 09:16:31;;;;;;;4.40;1.40;;;;;;;;;;5049943;28;20033;-73
2022/08/02 09:18:57;;;;;;;8.15;2.00;;;;;;;;;;5048757;28;20039;-73
2022/08/02 09:21:24;;;;;;;5.50;1.60;;;;;;;;;;5049434;28;20029;-74
2022/08/02 09:23:51;;;;;;;5.32;1.58;;;;;;;;;;5044513;28;20557;-74
2022/08/02 09:26:19;;;;;;;4.95;1.70;;;;;;;;;;5045008;28;20029;-73
2022/08/02 09:28:46;;;;;;;4.63;1.67;;;;;;;;;;5046842;28;20033;-73
2022/08/02 09:31:19;;;;;;;3.90;1.77;;;;;;;;;;5045346;28;20021;-73
2022/08/02 09:33:50;;;;;;;6.95;1.88;;;;;;;;;;5051032;28;20029;-73
2022/08/02 09:36:16;;;;;;;5.43;1.88;;;;;;;;;;5042001;28;20033;-73
2022/08/02 09:38:53;;;;;;;6.45;1.90;;;;;;;;;;5046050;28;20048;-73
2022/08/02 09:41:23;;;;;;;8.18;1.50;;;;;;;;;;5048483;28;20025;-73
2022/08/02 09:43:50;;;;;;;7.68;1.65;;;;;;;;;;5046685;28;20033;-73
2022/08/02 09:46:16;;;;;;;3.92;1.83;;;;;;;;;;5044197;28;20028;-73
2022/08/02 09:48:51;;;;;;;4.93;1.73;;;;;;;;;;5046596;28;20037;-74
2022/08/02 09:51:17;;;;;;;6.95;1.27;;;;;;;;;;5041306;28;20026;-73
2022/08/02 09:53:43;;;;;;;7.82;1.95;;;;;;;;;;5044251;28;20036;-73
2022/08/02 09:56:09;;;;;;;6.35;1.55;;;;;;;;;;5045404;28;20043;-74
2022/08/02 09:58:39;;;;;;;5.40;1.20;;;;;;;;;;5054389;28;20049;-73
2022/08/02 10:01:05;;;;;;;7.10;2.10;;;;;;;;;;5044682;28;20033;-73
2022/08/02 10:03:31;;;;;;;2.88;1.45;;;;;;;;;;5046896;28;20583;-73
2022/08/02 10:05:59;;;;;;;2.75;1.40;;;;;;;;;;5045226;28;20056;-73
2022/08/02 10:08:25;;;;;;;5.53;1.50;;;;;;;;;;5045572;28;20114;-73
2022/08/02 10:10:59;;;;;;;4.00;1.70;;;;;;;;;;5044128;28;20033;-73
2022/08/02 10:13:27;;;;;;;6.97;1.40;;;;;;;;;;5045954;28;20044;-73
2022/08/02 10:15:54;;;;;;;4.13;1.50;;;;;;;;;;5044579;28;20029;-74
2022/08/02 10:18:20;;;;;;;3.55;1.55;;;;;;;;;;5043494;28;20045;-74
2022/08/02 10:20:47;;;;;;;5.15;1.70;;;;;;;;;;5043998;28;20134;-73
2022/08/02 10:23:14;;;;;;;4.63;1.63;;;;;;;;;;5044803;28;20079;-73
2022/08/02 10:25:41;;;;;;;3.53;1.50;;;;;;;;;;5043925;28;20418;-73
2022/08/02 10:28:08;;;;;;;2.15;1.10;;;;;;;;;;5043707;28;20033;-73
2022/08/02 10:30:38;;;;;;;3.17;1.10;;;;;;;;;;5046084;28;20060;-73
2022/08/02 10:33:06;;;;;;;5.13;1.17;;;;;;;;;;5045741;28;20045;-73
2022/08/02 10:35:33;;;;;;;5.38;1.60;;;;;;;;;;5046707;28;20029;-73
2022/08/02 10:38:06;;;;;;;6.00;1.40;;;;;;;;;;5044805;28;20040;-74
2022/08/02 10:40:52;;;;;;;3.85;1.52;;;;;;;;;;5047180;28;20236;-73
2022/08/02 10:43:36;;;;;;;3.53;1.40;;;;;;;;;;5042917;28;20040;-73
2022/08/02 10:46:21;;;;;;;3.72;1.42;;;;;;;;;;5047553;28;20912;-73
2022/08/02 10:49:02;;;;;;;3.30;1.52;;;;;;;;;;5044795;28;20028;-73
2022/08/02 10:51:47;;;;;;;2.50;1.00;;;;;;;;;;5045804;28;20033;-74
2022/08/02 10:54:19;;;;;;;4.28;1.75;;;;;;;;;;5044342;28;20041;-74
2022/08/02 10:56:45;;;;;;;5.35;1.40;;;;;;;;;;5044238;28;20159;-74
2022/08/02 10:59:25;;;;;;;7.25;1.80;;;;;;;;;;5041986;28;20049;-73
2022/08/02 11:01:51;;;;;;;3.53;1.60;;;;;;;;;;5049323;28;20031;-74
2022/08/02 11:04:17;;;;;;;5.70;1.50;;;;;;;;;;5043532;28;20041;-74
2022/08/02 11:07:01;;;;;;;4.97;1.50;;;;;;;;;;5043239;28;20032;-73
2022/08/02 11:09:28;;;;;;;5.28;1.58;;;;;;;;;;5046781;28;20486;-74
2022/08/02 11:11:59;;;;;;;4.70;1.80;;;;;;;;;;5042353;28;20094;-74
2022/08/02 11:14:25;;;;;;;5.45;1.30;;;;;;;;;;5043575;28;20064;-74
2022/08/02 11:16:54;;;;;;;5.07;1.33;;;;;;;;;;5049065;28;20033;-74
2022/08/02 11:19:21;;;;;;;4.90;1.40;;;;;;;;;;5047783;28;20044;-74
2022/08/02 11:22:10;;;;;;;4.85;1.38;;;;;;;;;;5045727;28;20043;-74
2022/08/02 11:24:37;;;;;;;4.40;1.25;;;;;;;;;;5044929;28;20037;-74
2022/08/02 11:27:05;;;;;;;4.78;1.80;;;;;;;;;;5047619;28;20532;-74
2022/08/02 11:29:31;;;;;;;8.65;1.58;;;;;;;;;;5038420;28;20114;-74
2022/08/02 11:31:58;;;;;;;3.90;1.50;;;;;;;;;;5044779;28;20028;-74
2022/08/02 11:34:25;;;;;;;5.05;1.15;;;;;;;;;;5046964;28;20041;-74
2022/08/02 11:36:52;;;;;;;6.68;1.40;;;;;;;;;;5045381;28;20033;-74
2022/08/02 11:39:19;;;;;;;2.60;1.10;;;;;;;;;;5047718;28;20613;-74
2022/08/02 11:41:50;;;;;;;3.20;1.00;;;;;;;;;;5045310;28;20143;-74
2022/08/02 11:44:16;;;;;;;4.75;1.00;;;;;;;;;;5046203;28;20052;-74
2022/08/02 11:46:42;;;;;;;2.78;1.02;;;;;;;;;;5046569;28;20412;-73
2022/08/02 11:49:15;;;;;;;3.75;1.30;;;;;;;;;;5044043;28;20033;-74
2022/08/02 11:52:11;;;;;;;8.57;1.75;;;;;;;;;;5045094;28;20040;-74
2022/08/02 11:54:41;;;;;;;3.13;1.10;;;;;;;;;;5031212;28;20049;-73
2022/08/02 11:57:14;;;;;;;2.30;0.98;;;;;;;;;;5042843;28;20068;-74
2022/08/02 11:59:41;;;;;;;2.83;0.82;;;;;;;;;;5043995;28;20700;-74
2022/08/02 12:02:07;;;;;;;2.05;0.90;;;;;;;;;;5048520;28;20038;-73
2022/08/02 12:04:34;;;;;;;3.55;1.08;;;;;;;;;;5048859;28;20041;-73
2022/08/02 12:07:00;;;;;;;3.08;0.75;;;;;;;;;;5046963;28;20082;-73
2022/08/02 12:09:27;;;;;;;2.15;0.85;;;;;;;;;;5053728;28;20111;-74
2022/08/02 12:11:54;;;;;;;4.63;1.30;;;;;;;;;;5042497;28;20445;-74
2022/08/02 12:14:20;;;;;;;4.68;1.42;;;;;;;;;;5043142;28;20178;-74
2022/08/02 12:19:32;;;;;;;6.72;1.25;;;;;;;;;;5048166;28;20084;-73
2022/08/02 12:22:07;;;;;;;5.40;0.93;;;;;;;;;;5040295;28;20173;-74
2022/08/02 12:24:33;;;;;;;7.13;1.05;;;;;;;;;;5044588;28;20115;-74
2022/08/02 12:26:59;;;;;;;3.28;0.77;;;;;;;;;;5044192;28;20063;-74
2022/08/02 12:29:33;;;;;;;3.53;1.05;;;;;;;;;;5045188;28;20044;-73
2022/08/02 12:31:59;;;;;;;5.97;1.20;;;;;;;;;;5043193;28;20035;-73
2022/08/02 12:34:26;;;;;;;2.97;1.00;;;;;;;;;;5049747;28;20488;-74
2022/08/02 12:37:03;;;;;;;4.05;0.95;;;;;;;;;;5043694;28;20024;-74
2022/08/02 12:39:33;;;;;;;7.80;1.38;;;;;;;;;;5046565;28;20048;-74
2022/08/02 12:42:00;;;;;;;7.88;1.23;;;;;;;;;;5044075;28;20033;-74
2022/08/02 12:44:26;;;;;;;6.03;1.20;;;;;;;;;;5046174;28;20480;-74
2022/08/02 12:46:59;;;;;;;4.05;1.33;;;;;;;;;;5045016;28;20541;-74
2022/08/02 12:49:25;;;;;;;4.20;1.00;;;;;;;;;;5047408;28;20036;-74
2022/08/02 12:51:51;;;;;;;7.78;1.27;;;;;;;;;;5044084;28;20634;-74
2022/08/02 12:54:21;;;;;;;2.08;1.00;;;;;;;;;;5045680;28;20105;-73
2022/08/02 12:56:47;;;;;;;6.10;0.98;;;;;;;;;;5046098;28;20028;-73
2022/08/02 12:59:14;;;;;;;4.95;1.13;;;;;;;;;;5049583;28;20099;-74
2022/08/02 13:01:40;;;;;;;1.40;0.90;;;;;;;;;;5048350;28;20108;-74
2022/08/02 13:04:07;;;;;;;8.45;1.23;;;;;;;;;;5050638;28;20045;-74
2022/08/02 13:06:33;;;;;;;3.50;1.13;;;;;;;;;;5043484;28;20032;-74
2022/08/02 13:09:00;;;;;;;3.42;1.25;;;;;;;;;;5045060;28;20064;-74
2022/08/02 13:11:26;;;;;;;5.03;1.17;;;;;;;;;;5038896;28;20098;-74
2022/08/02 13:13:52;;;;;;;3.88;1.20;;;;;;;;;;5039382;28;20099;-74
2022/08/02 13:16:18;;;;;;;4.03;1.20;;;;;;;;;;5048588;28;20033;-74
2022/08/02 13:18:45;;;;;;;3.13;0.95;;;;;;;;;;5043938;28;20485;-74
2022/08/02 13:21:11;;;;;;;2.15;0.90;;;;;;;;;;5044626;28;20380;-74
2022/08/02 13:23:37;;;;;;;3.95;1.20;;;;;;;;;;5043857;28;20065;-74
2022/08/02 13:26:04;;;;;;;3.30;1.00;;;;;;;;;;5047635;28;20020;-74
2022/08/02 13:28:30;;;;;;;2.60;1.10;;;;;;;;;;5045246;28;20043;-73
2022/08/02 13:30:56;;;;;;;4.03;1.20;;;;;;;;;;5043381;28;20496;-73
2022/08/02 13:33:22;;;;;;;3.17;1.40;;;;;;;;;;5049972;28;20043;-73
2022/08/02 13:35:48;;;;;;;5.25;1.55;;;;;;;;;;5045838;28;20025;-74
2022/08/02 13:38:14;;;;;;;7.40;1.25;;;;;;;;;;5047600;28;20041;-74
2022/08/02 13:43:26;;;;;;;3.05;0.90;;;;;;;;;;5040716;28;20447;-74
2022/08/02 13:45:52;;;;;;;6.35;1.15;;;;;;;;;;5041340;28;20091;-74
2022/08/02 13:48:19;;;;;;;2.67;0.90;;;;;;;;;;5044180;28;20033;-74
2022/08/02 13:50:45;;;;;;;3.33;0.90;;;;;;;;;;5040636;28;20045;-74
2022/08/02 13:53:11;;;;;;;3.10;0.80;;;;;;;;;;5044738;28;20526;-74
2022/08/02 13:55:38;;;;;;;3.58;1.20;;;;;;;;;;5044111;28;20064;-74
2022/08/02 13:58:04;;;;;;;4.88;0.98;;;;;;;;;;5045957;28;20036;-74
2022/08/02 14:00:31;;;;;;;2.80;0.70;;;;;;;;;;5044232;28;20045;-74
2022/08/02 14:02:57;;;;;;;3.33;1.02;;;;;;;;;;5044618;28;20029;-74
2022/08/02 14:05:28;;;;;;;2.42;0.80;;;;;;;;;;5045489;28;20025;-74
2022/08/02 14:07:55;;;;;;;3.20;0.90;;;;;;;;;;5045277;28;20041;-74
2022/08/02 14:10:21;;;;;;;3.15;1.00;;;;;;;;;;5046368;28;20048;-74
2022/08/02 14:12:47;;;;;;;3.30;0.88;;;;;;;;;;5041950;28;20470;-74
2022/08/02 14:15:13;;;;;;;3.45;0.80;;;;;;;;;;5046908;28;20041;-74
2022/08/02 14:17:39;;;;;;;1.95;0.80;;;;;;;;;;5043776;28;20064;-74
2022/08/02 14:20:06;;;;;;;3.00;0.70;;;;;;;;;;5039734;28;20431;-74
2022/08/02 14:22:32;;;;;;;2.88;0.80;;;;;;;;;;5045665;28;20032;-74
2022/08/02 14:24:58;;;;;;;5.65;0.90;;;;;;;;;;5045676;28;20119;-74
2022/08/02 14:27:24;;;;;;;3.78;0.82;;;;;;;;;;5045159;28;20136;-73
2022/08/02 14:29:50;;;;;;;1.52;0.63;;;;;;;;;;5039261;28;20490;-74
2022/08/02 14:32:16;;;;;;;3.22;0.80;;;;;;;;;;5044040;28;20037;-74
2022/08/02 14:34:45;;;;;;;3.88;0.90;;;;;;;;;;5039334;28;20106;-74
2022/08/02 14:37:11;;;;;;;4.07;0.88;;;;;;;;;;5041701;28;20028;-74
2022/08/02 14:39:37;;;;;;;2.30;0.77;;;;;;;;;;5044304;28;20547;-74
2022/08/02 14:42:03;;;;;;;1.92;0.70;;;;;;;;;;5042963;28;20106;-73
2022/08/02 14:44:30;;;;;;;5.40;1.10;;;;;;;;;;5049780;28;20033;-74
2022/08/02 14:46:56;;;;;;;5.70;0.90;;;;;;;;;;5045891;28;20031;-74
2022/08/02 14:49:22;;;;;;;4.03;1.00;;;;;;;;;;5046216;28;20040;-73
2022/08/02 14:51:48;;;;;;;3.60;0.93;;;;;;;;;;5045850;28;20553;-74
2022/08/02 14:54:14;;;;;;;2.38;0.93;;;;;;;;;;5041171;28;20048;-74
2022/08/02 14:56:40;;;;;;;2.00;0.77;;;;;;;;;;5041043;28;20033;-73